Pagrindinis puslapis
METAR-TAF:

METAR-TAF

Oro uostai :

Japas, Mikronezija

platuma: 09-29N, ilguma: 138-05E, Aukštis: 28 m

Dabartinis oras

Ataskaita buvo paskelbta 1 valandą ir 9 minutes, ne 08:51 UTC
Vėjas 6 kt nuo kintamojo kryptimis
Temperatūra 28°C
Drėgmė 89%
Slėgis 1009 hPa
Matomumas: 19.3 km
Mažai debesys ne aukštis 1600 ft
Su prošvaistėmis ne aukštis 30000 ft

METAR: PTYA 220851Z VRB06KT 12SM FEW016 BKN300 28/26 A2980 RMK SLP093 8/101 T02830258 53003

Laikas: 20:00 (10:00 UTC)

Prognozė

Ataskaita buvo paskelbta 4 valandos ir 40 minutes, ne 05:20 UTC
Prognozė galioja nuo 22 metu 06 UTC su 23 metu 06 UTC
Vėjas 9 kt iš Rytų
Matomumas: 10 km
Išsisklaidę debesys ne aukštis 1500 ft
Su prošvaistėmis ne aukštis 4000 ft
Su prošvaistėmis ne aukštis 12000 ft
Liūtis kaimynystėje,

TAF: PTYA 220520Z 2206/2306 10009KT P6SM VCSH SCT015 BKN040 BKN120

Orai ataskaitas ir orų prognozės (METAR, TAF).

turimą stotys yra geltonos ir raudonos taškus žemėlapyje.

Perkelti pele per norėdami pamatyti stoties vardą.

Tada spustelėkite, norėdami matyti oro stebėjimo ir prognozės.

Norėdami pakeisti žemėlapį: spustelėkite ant žalios mygtukų su juodo kryžiaus žemyn,; žalią mygtuką su brūkšneliu, jei norite nutolinti; arba žalių rodyklių gretimoms žemėlapius.


METAR-TAF: